• Join FlightAware (Why Join?)
  • Login
  • US Flag 
03:00PM EST


 

Airport Tracker/Info


-or-


 

Live Flight TrackerFlight Track Log ✈ JBU673 ✈ 11-Apr-2013 ✈ KJFK - KLAX

Flight Track Log - Related Links

Times and Time Zones

All times are in EDT time to prevent confusion due to time zone crossing. See the JBU673 flight status page for this flight to view local times or setup timezone preferences in your user account.

Time Position Orientation Groundspeed Altitude Reporting Facility
EDT Latitude Longitude Course Direction KTS MPH feet Rate Location/Type
11:24AM 40.6667 -73.7167 226° Southwest 191 220 2,100  Level New York TRACON
11:25AM 40.6000 -73.6833 159° South 272 313 3,800 2,280 Climbing New York TRACON
11:26AM 40.4219 -74.1173 229° Southwest  Level FlightAware Approximate
11:26AM 40.5333 -73.6833 180° South 271 312 6,700  Level New York TRACON
11:27AM 40.3472 -74.2325 232° Southwest  Level FlightAware Approximate
11:27AM 40.4833 -73.7333 217° Southwest 255 293 8,900  Level New York TRACON
11:28AM 40.2760 -74.3512 232° Southwest  Level FlightAware Approximate
11:28AM 40.4667 -73.8167 255° West 259 298 10,600  Level New York TRACON
11:29AM 40.2034 -74.4621 226° Southwest  Level FlightAware Approximate
11:29AM 40.4167 -73.9167 237° Southwest 311 358 11,500  Level New York TRACON
11:30AM 40.3678 -74.0672 247° West 316 364 13,900 1,020 Climbing New York Center
11:31AM 40.3272 -74.1742 244° Southwest 330 380 14,000 900 Climbing New York Center
11:32AM 40.2842 -74.2861 243° Southwest 340 391 15,700 1,440 Climbing New York Center
11:33AM 40.2411 -74.4008 244° Southwest 346 398 16,900 1,140 Climbing New York Center
11:34AM 40.2019 -74.5183 246° West 356 410 18,000 1,380 Climbing New York Center
11:35AM 40.1897 -74.6428 263° West 366 421 19,700 1,620 Climbing New York Center
11:36AM 40.1783 -74.7917 264° West 384 442 21,300 1,140 Climbing New York Center
11:37AM 40.1694 -74.9294 265° West 384 442 22,000 300 Climbing New York Center
11:38AM 40.1583 -75.0675 264° West 384 442 22,000 360 Level New York Center
11:39AM 40.1467 -75.2081 264° West 384 442 22,800 780 Climbing New York Center
11:40AM 40.1350 -75.3511 264° West 389 448 23,600 720 Climbing New York Center
11:41AM 40.1231 -75.4942 264° West 389 448 24,300 780 Climbing New York Center
11:42AM 40.1114 -75.6319 264° West 412 474 25,200 1,020 Climbing New York Center
11:43AM 40.0989 -75.7803 264° West 418 481 26,400 960 Climbing New York Center
11:44AM 40.0839 -75.9339 263° West 425 489 27,200 720 Climbing New York Center
11:45AM 40.0706 -76.0903 264° West 430 495 27,900 840 Climbing New York Center
11:46AM 40.0533 -76.2436 262° West 435 501 28,900 900 Climbing New York Center
11:47AM 40.0372 -76.4050 263° West 445 512 29,800 840 Climbing New York Center
11:48AM 40.0214 -76.5636 263° West 445 512 30,700 900 Climbing New York Center
11:49AM 40.0053 -76.7169 262° West 439 505 31,600 660 Climbing New York Center
11:50AM 39.9931 -76.8756 264° West 439 505 32,000 180 Climbing New York Center
11:51AM 39.9747 -77.0286 261° West 439 505 32,000  Level New York Center
11:52AM 39.9603 -77.1789 263° West 434 499 32,000  Level New York Center
11:53AM 39.9519 -77.3325 266° West 429 494 32,000  Level New York Center
11:54AM 39.9558 -77.4819 272° West 423 487 32,000  Level New York Center
11:55AM 39.9619 -77.7011 272° West 420 483 32,000  Level Cleveland Center
11:56AM 39.9678 -77.8553 273° West 420 483 32,000  Level Cleveland Center
11:57AM 39.9714 -78.0094 272° West 420 483 32,000  Level Cleveland Center
11:58AM 39.9767 -78.1611 273° West 420 483 32,000  Level Cleveland Center
11:59AM 39.9800 -78.3181 272° West 420 483 32,000  Level Cleveland Center
12:00PM 39.9831 -78.4697 272° West 420 483 32,000  Level Cleveland Center
12:01PM 39.9878 -78.6267 272° West 420 483 32,000  Level Cleveland Center
12:02PM 39.9903 -78.7811 271° West 425 489 32,000  Level Cleveland Center
12:03PM 39.9928 -78.9381 271° West 425 489 32,100  Climbing Cleveland Center
12:04PM 39.9992 -79.0925 273° West 425 489 32,000 -60 Descending Cleveland Center
12:05PM 40.0031 -79.2469 272° West 425 489 32,000  Level Cleveland Center
12:06PM 40.0047 -79.4042 271° West 430 495 32,000  Level Cleveland Center
12:07PM 40.0083 -79.5586 272° West 430 495 32,000 180 Level Cleveland Center
12:08PM 40.0097 -79.7131 271° West 430 495 32,400 600 Climbing Cleveland Center
12:09PM 40.0128 -79.8675 272° West 430 495 33,200 780 Climbing Cleveland Center
12:10PM 40.0136 -80.0167 270° West 425 489 34,000 360 Climbing Cleveland Center
12:11PM 40.0142 -80.1656 270° West 420 483 34,000  Level Cleveland Center
12:12PM 40.0147 -80.3147 270° West 420 483 34,000  Level Cleveland Center
12:13PM 40.0169 -80.4639 271° West 420 483 34,000  Level Cleveland Center
12:14PM 40.0172 -80.6156 270° West 420 483 34,000  Level Cleveland Center
12:15PM 40.0192 -80.7619 271° West 420 483 34,000  Level Cleveland Center
12:16PM 40.0186 -80.9139 270° West 420 483 34,000  Level Cleveland Center
12:19PM 40.0119 -81.2583 269° West 416 479 34,000  Level Indianapolis Center
12:20PM 40.0086 -81.4094 268° West 417 480 34,000  Level Indianapolis Center
12:21PM 40.0056 -81.5767 269° West 416 479 34,000  Level Indianapolis Center
12:22PM 40.0017 -81.7258 268° West 410 472 34,000 -60 Level Indianapolis Center
12:23PM 39.9983 -81.8728 268° West 404 465 33,900 -60 Descending Indianapolis Center
12:24PM 39.9950 -82.0194 268° West 402 463 33,900  Level Indianapolis Center
12:25PM 39.9914 -82.1672 268° West 404 465 34,000  Climbing Indianapolis Center
12:26PM 39.9864 -82.3417 268° West 408 470 34,000  Level Indianapolis Center
12:27PM 39.9828 -82.4908 268° West 410 472 34,000  Level Indianapolis Center
12:28PM 39.9781 -82.6358 268° West 402 463 34,000 -60 Level Indianapolis Center
12:29PM 39.9747 -82.7833 268° West 403 464 33,900  Descending Indianapolis Center
12:30PM 39.9697 -82.9297 267° West 402 463 34,000  Climbing Indianapolis Center
12:31PM 39.9647 -83.0781 268° West 406 467 34,000  Level Indianapolis Center
12:32PM 39.9625 -83.2272 269° West 409 471 34,000  Level Indianapolis Center
12:33PM 39.9583 -83.3744 268° West 407 468 34,000  Level Indianapolis Center
12:34PM 39.9517 -83.5456 267° West 411 473 34,000 -60 Level Indianapolis Center
12:35PM 39.9453 -83.6919 267° West 410 472 33,900  Descending Indianapolis Center
12:36PM 39.9400 -83.8408 267° West 409 471 34,000  Climbing Indianapolis Center
12:37PM 39.9344 -83.9908 267° West 411 473 34,000  Level Indianapolis Center
12:38PM 39.9283 -84.1408 267° West 412 474 34,000  Level Indianapolis Center
12:39PM 39.9217 -84.2911 267° West 413 475 34,000  Level Indianapolis Center
12:40PM 39.9169 -84.4408 268° West 411 473 34,000  Level Indianapolis Center
12:41PM 39.9089 -84.5914 266° West 412 474 34,000 -60 Level Indianapolis Center
12:42PM 39.9022 -84.7392 267° West 406 467 33,900 -60 Descending Indianapolis Center
12:44PM 39.8947 -84.9133 267° West 410 472 33,900  Level Indianapolis Center
12:45PM 39.8869 -85.0625 266° West 411 473 34,000  Climbing Indianapolis Center
12:46PM 39.8783 -85.2100 266° West 408 470 34,000 -60 Level Indianapolis Center
12:47PM 39.8731 -85.3589 267° West 408 470 33,900 -60 Descending Indianapolis Center
12:48PM 39.8644 -85.5072 266° West 407 468 33,900  Level Indianapolis Center
12:49PM 39.8561 -85.6567 266° West 412 474 34,000  Climbing Indianapolis Center
12:50PM 39.8469 -85.8058 265° West 411 473 34,000  Level Indianapolis Center
12:51PM 39.8386 -85.9517 266° West 410 472 34,000  Level Indianapolis Center
12:52PM 39.8317 -86.0989 267° West 408 470 34,000  Level Indianapolis Center
12:53PM 39.8208 -86.2722 265° West 402 463 34,000  Level Indianapolis Center
12:54PM 39.8333 -86.4208 276° West 415 478 34,000  Level Indianapolis Center
12:55PM 39.8692 -86.5692 288° West 427 491 34,100  Climbing Indianapolis Center
12:56PM 39.9089 -86.7175 289° West 432 497 34,000 -60 Descending Indianapolis Center
12:57PM 39.9481 -86.8650 289° West 431 496 34,000  Level Indianapolis Center
12:58PM 39.9878 -87.0114 290° West 429 494 34,000  Level Indianapolis Center
12:59PM 40.0267 -87.1578 289° West 427 491 34,000  Level Indianapolis Center
01:00PM 40.0728 -87.3356 289° West 429 494 34,000  Level Indianapolis Center
01:01PM 40.1108 -87.4839 289° West 430 495 34,000  Level Indianapolis Center
01:02PM 40.1428 -87.6139 288° West 434 499 34,000  Level Chicago Center
01:03PM 40.1814 -87.7633 289° West 436 502 34,000  Level Chicago Center
01:04PM 40.2194 -87.9125 289° West 435 501 34,000  Level Chicago Center
01:05PM 40.2572 -88.0614 288° West 432 497 34,000  Level Chicago Center
01:06PM 40.3033 -88.2408 289° West 434 499 34,000  Level Chicago Center
01:07PM 40.3408 -88.3908 288° West 433 498 34,000  Level Chicago Center
01:08PM 40.3778 -88.5406 288° West 433 498 34,000  Level Chicago Center
01:09PM 40.4144 -88.6931 288° West 437 503 34,000  Level Chicago Center
01:10PM 40.4522 -88.8456 288° West 438 504 34,000  Level Chicago Center
01:11PM 40.4894 -88.9975 288° West 437 503 34,000  Level Chicago Center
01:12PM 40.5258 -89.1489 288° West 436 502 34,100  Climbing Chicago Center
01:13PM 40.5692 -89.3294 288° West 433 498 34,000 -120 Descending Chicago Center
01:14PM 40.6047 -89.4767 288° West 427 491 33,900  Descending Chicago Center
01:15PM 40.6408 -89.6244 288° West 425 489 34,000  Climbing Chicago Center
01:16PM 40.6767 -89.7722 288° West 425 489 34,000  Level Chicago Center
01:17PM 40.7128 -89.9183 288° West 423 487 34,000  Level Chicago Center
01:18PM 40.7444 -90.0897 284° West 411 473 34,000  Level Chicago Center
01:19PM 40.7758 -90.2375 286° West 418 481 34,000  Level Chicago Center
01:21PM 40.8042 -90.3764 285° West 423 487 34,100  Climbing Chicago Center
01:22PM 40.8364 -90.5258 286° West 424 488 34,000 -60 Descending Chicago Center
01:23PM 40.8719 -90.7011 285° West 414 476 34,000  Level Chicago Center
01:24PM 40.9011 -90.8456 285° West 407 468 34,000  Level Chicago Center
01:25PM 40.9311 -90.9886 286° West 405 466 34,000  Level Chicago Center
01:26PM 40.9594 -91.1358 284° West 410 472 34,000  Level Chicago Center
01:27PM 40.9894 -91.2828 285° West 414 476 34,000  Level Chicago Center
01:28PM 41.0194 -91.4322 285° West 419 482 34,100  Climbing Chicago Center
01:29PM 41.0481 -91.5792 285° West 415 478 34,000 -60 Descending Chicago Center
01:30PM 41.0794 -91.7300 285° West 417 480 34,000  Level Chicago Center
01:31PM 41.1133 -91.9089 284° West 421 484 34,000  Level Chicago Center
01:32PM 41.1422 -92.0583 284° West 422 486 34,000  Level Chicago Center
01:33PM 41.1711 -92.2089 284° West 424 488 34,000  Level Chicago Center
01:34PM 41.2000 -92.3597 284° West 426 490 34,000  Level Chicago Center
01:35PM 41.2350 -92.5425 284° West 430 495 34,000  Level Chicago Center
01:36PM 41.2575 -92.6658 284° West 428 493 34,000  Level Minneapolis Center
01:38PM 41.3150 -92.9719 284° West 430 495 34,000 -60 Level Minneapolis Center
01:39PM 41.3425 -93.1278 283° West 434 499 33,900  Descending Minneapolis Center
01:40PM 41.3775 -93.3169 284° West 441 507 34,000  Climbing Minneapolis Center
01:41PM 41.4058 -93.4764 283° West 445 512 34,000  Level Minneapolis Center
01:43PM 41.4335 -93.6762 270° West  Level FlightAware Approximate
01:44PM 41.4394 -93.9556 270° West 435 501 34,000  Level Minneapolis Center
01:45PM 41.4394 -94.1189 270° West 442 509 34,000  Level Minneapolis Center
01:46PM 41.4386 -94.2892 270° West 446 513 34,000  Level Minneapolis Center
01:47PM 41.4378 -94.5169 270° West 439 505 34,000  Level Minneapolis Center
01:48PM 41.4367 -94.6806 270° West 441 507 34,000  Level Minneapolis Center
01:49PM 41.4361 -94.8431 270° West 439 505 34,000  Level Minneapolis Center
01:50PM 41.4361 -95.0039 270° West 435 501 34,000  Level Minneapolis Center
01:51PM 41.4275 -95.1647 266° West 435 501 34,000  Level Minneapolis Center
01:52PM 41.4039 -95.3256 259° West 441 507 34,000  Level Minneapolis Center
01:54PM 41.3817 -95.4847 260° West 439 505 34,000  Level Minneapolis Center
01:55PM 41.3558 -95.6714 260° West 441 507 34,000  Level Minneapolis Center
01:56PM 41.3339 -95.8325 260° West 442 509 34,000  Level Minneapolis Center
01:57PM 41.3111 -95.9933 259° West 442 509 34,000  Level Minneapolis Center
01:58PM 41.2889 -96.1531 260° West 441 507 34,100  Climbing Minneapolis Center
01:59PM 41.2661 -96.3111 259° West 436 502 34,000 -60 Descending Minneapolis Center
02:00PM 41.2408 -96.4853 259° West 432 497 34,000  Level Minneapolis Center
02:01PM 41.2164 -96.6403 258° West 429 494 34,000  Level Minneapolis Center
02:02PM 41.1939 -96.7931 259° West 423 487 34,000  Level Minneapolis Center
02:03PM 41.1703 -96.9472 259° West 425 489 34,000  Level Minneapolis Center
02:04PM 41.1472 -97.1028 259° West 427 491 34,000  Level Minneapolis Center
02:05PM 41.1231 -97.2583 258° West 431 496 34,000  Level Minneapolis Center
02:06PM 41.0969 -97.4300 259° West 433 498 34,000  Level Minneapolis Center
02:07PM 41.0719 -97.5858 258° West 433 498 34,000  Level Minneapolis Center
02:08PM 41.0472 -97.7444 258° West 437 503 34,000  Level Minneapolis Center
02:09PM 41.0161 -97.9386 258° West 445 512 34,000  Level Minneapolis Center
02:10PM 40.9906 -98.0989 258° West 444 511 34,100  Climbing Minneapolis Center
02:11PM 40.9642 -98.2583 258° West 443 510 34,000 -60 Descending Minneapolis Center
02:12PM 40.9392 -98.4167 258° West 438 504 34,000  Level Minneapolis Center
02:13PM 40.9169 -98.5536 258° West 435 501 34,000  Level Minneapolis Center
02:14PM 40.8853 -98.7386 257° West 431 496 34,000  Level Minneapolis Center
02:15PM 40.8592 -98.8922 257° West 429 494 34,000  Level Minneapolis Center
02:16PM 40.8292 -99.0717 258° West 422 486 34,000  Level Minneapolis Center
02:17PM 40.8039 -99.2192 257° West 420 483 34,000  Level Minneapolis Center
02:18PM 40.7989 -99.2497 258° West 420 483 34,000  Level Denver Center
02:19PM 40.7669 -99.4311 257° West 421 484 34,000  Level Denver Center
02:20PM 40.7411 -99.5850 258° West 427 491 34,000  Level Denver Center
02:21PM 40.7136 -99.7383 257° West 429 494 34,100  Climbing Denver Center
02:22PM 40.6847 -99.8981 257° West 430 495 34,000 -60 Descending Denver Center
02:23PM 40.6583 -100.0444 257° West 429 494 34,000  Level Denver Center
02:24PM 40.6264 -100.2156 256° West 430 495 34,000  Level Denver Center
02:25PM 40.5994 -100.3650 257° West 433 498 34,000  Level Denver Center
02:26PM 40.5678 -100.5383 257° West 434 499 34,000  Level Denver Center
02:27PM 40.5392 -100.6883 256° West 436 502 34,000  Level Denver Center
02:28PM 40.5108 -100.8383 256° West 439 505 34,000  Level Denver Center
02:29PM 40.4781 -101.0133 256° West 440 506 34,000  Level Denver Center
02:30PM 40.4503 -101.1636 256° West 440 506 34,000  Level Denver Center
02:31PM 40.4167 -101.3397 256° West 444 511 34,000  Level Denver Center
02:32PM 40.3881 -101.4883 256° West 441 507 34,000  Level Denver Center
02:33PM 40.3531 -101.6647 255° West 446 513 34,000  Level Denver Center
02:34PM 40.3247 -101.8150 256° West 445 512 34,000  Level Denver Center
02:35PM 40.2956 -101.9650 256° West 446 513 34,000  Level Denver Center
02:36PM 40.2581 -102.1378 254° West 445 512 34,000  Level Denver Center
02:37PM 40.2278 -102.2869 255° West 446 513 34,000  Level Denver Center
02:38PM 40.1936 -102.4594 256° West 439 505 34,000  Level Denver Center
02:39PM 40.1619 -102.6086 255° West 442 509 34,000  Level Denver Center
02:40PM 40.1286 -102.7728 255° West 443 510 34,000  Level Denver Center
02:41PM 40.0961 -102.9281 255° West 441 507 34,000  Level Denver Center
02:42PM 40.0644 -103.0836 255° West 439 505 34,000  Level Denver Center
02:43PM 40.0311 -103.2381 254° West 439 505 34,000  Level Denver Center
02:44PM 39.9925 -103.4181 254° West 440 506 34,000  Level Denver Center
02:45PM 39.9597 -103.5742 255° West 443 510 34,000  Level Denver Center
02:47PM 39.9261 -103.7294 254° West 444 511 34,000  Level Denver Center
02:48PM 39.8872 -103.9142 255° West 447 514 34,000  Level Denver Center
02:49PM 39.8528 -104.0692 254° West 440 506 34,100  Climbing Denver Center
02:50PM 39.8189 -104.2203 254° West 431 496 34,000 -60 Descending Denver Center
02:51PM 39.7792 -104.3992 254° West 431 496 34,000  Level Denver Center
02:52PM 39.7447 -104.5489 253° West 432 497 34,000  Level Denver Center
02:53PM 39.7100 -104.6975 253° West 430 495 34,000  Level Denver Center
02:54PM 39.6772 -104.8456 254° West 421 484 34,000  Level Denver Center
02:55PM 39.6428 -104.9961 253° West 433 498 34,000  Level Denver Center
02:56PM 39.6017 -105.1747 253° West 437 503 34,000  Level Denver Center
02:57PM 39.5608 -105.3486 253° West 430 495 34,000  Level Denver Center
02:58PM 39.5253 -105.4997 253° West 430 495 34,000  Level Denver Center
02:59PM 39.4903 -105.6475 253° West 427 491 34,000  Level Denver Center
03:00PM 39.4533 -105.7961 252° West 431 496 34,000  Level Denver Center
03:01PM 39.4161 -105.9728 255° West 432 497 34,000  Level Denver Center
03:02PM 39.3892 -106.0769 252° West 448 516 34,100  Climbing Denver Center
03:03PM 39.3422 -106.2744 253° West 450 518 34,100 -60 Level Denver Center
03:04PM 39.3006 -106.4450 253° West 447 514 34,000  Descending Denver Center
03:06PM 39.2642 -106.5933 252° West 450 518 34,100  Climbing Denver Center
03:07PM 39.2225 -106.7642 253° West 447 514 34,000 -60 Descending Denver Center
03:08PM 39.1856 -106.9072 252° West 441 507 34,000  Level Denver Center
03:09PM 39.1442 -107.0775 253° West 443 510 34,000  Level Denver Center
03:10PM 39.1081 -107.2222 252° West 443 510 34,000  Level Denver Center
03:11PM 39.0703 -107.3658 251° West 443 510 34,000  Level Denver Center
03:12PM 39.0278 -107.5347 252° West 444 511 34,000  Level Denver Center
03:13PM 38.9919 -107.6769 252° West 439 505 34,000  Level Denver Center
03:14PM 38.9481 -107.8444 251° West 440 506 34,000  Level Denver Center
03:15PM 38.9111 -107.9878 252° West 440 506 34,100  Climbing Denver Center
03:16PM 38.8675 -108.1533 251° West 438 504 34,000 -60 Descending Denver Center
03:17PM 38.8308 -108.2942 252° West 435 501 34,000  Level Denver Center
03:18PM 38.7939 -108.4353 251° West 435 501 34,000  Level Denver Center
03:19PM 38.7503 -108.5981 251° West 432 497 34,000  Level Denver Center
03:20PM 38.7136 -108.7364 251° West 427 491 34,000  Level Denver Center
03:21PM 38.6700 -108.8989 251° West 431 496 34,000  Level Denver Center
03:22PM 38.6325 -109.0389 251° West 434 499 34,000  Level Denver Center
03:23PM 38.6014 -109.1553 251° West 433 498 34,000  Level Denver Center
03:24PM 38.5503 -109.3406 251° West 432 497 34,000  Level Denver Center
03:25PM 38.5114 -109.4806 250° West 434 499 34,000  Level Denver Center
03:26PM 38.4667 -109.6425 251° West 433 498 34,000  Level Denver Center
03:27PM 38.4283 -109.7800 250° West 430 495 34,000  Level Denver Center
03:28PM 38.3833 -109.9394 250° West 428 493 34,000  Level Denver Center
03:29PM 38.3447 -110.0764 250° West 429 494 34,000  Level Denver Center
03:30PM 38.3064 -110.2128 250° West 427 491 34,000  Level Denver Center
03:31PM 38.2611 -110.3692 250° West 424 488 34,000  Level Denver Center
03:32PM 38.2233 -110.5031 250° West 420 483 34,000  Level Denver Center
03:33PM 38.1786 -110.6600 250° West 423 487 34,000  Level Denver Center
03:34PM 38.1328 -110.8167 250° West 423 487 34,000  Level Salt Lake Center
03:35PM 38.0975 -110.9339 249° West 420 483 34,000  Level Denver Center
03:36PM 38.0572 -111.0728 250° West 421 484 34,000  Level Denver Center
03:37PM 38.0092 -111.2378 250° West 416 479 34,000  Level Salt Lake Center
03:38PM 37.9692 -111.3750 250° West 417 480 34,000  Level Denver Center
03:40PM 37.9300 -111.5147 250° West 420 483 34,000  Level Salt Lake Center
03:41PM 37.8875 -111.6494 248° West 414 476 34,000  Level Salt Lake Center
03:42PM 37.8450 -111.7875 249° West 419 482 34,000  Level Salt Lake Center
03:43PM 37.7956 -111.9536 249° West 422 486 34,000  Level Salt Lake Center
03:44PM 37.7536 -112.0919 249° West 423 487 34,000  Level Salt Lake Center
03:45PM 37.7106 -112.2319 249° West 427 491 34,100  Climbing Salt Lake Center
03:46PM 37.6525 -112.3603 240° Southwest 423 487 34,000 -60 Descending Salt Lake Center
03:47PM 37.5761 -112.4797 231° Southwest 431 496 34,000  Level Salt Lake Center
03:48PM 37.5003 -112.5992 231° Southwest 433 498 34,000  Level Salt Lake Center
03:49PM 37.4239 -112.7181 231° Southwest 431 496 34,000  Level Salt Lake Center
03:50PM 37.3481 -112.8358 231° Southwest 429 494 34,000  Level Salt Lake Center
03:51PM 37.2714 -112.9531 231° Southwest 429 494 34,000  Level Salt Lake Center
03:52PM 37.1814 -113.0922 231° Southwest 427 491 34,000  Level Salt Lake Center
03:52PM 37.1503 -113.1383 230° Southwest 427 491 34,000  Level Los Angeles Center
03:53PM 37.1058 -113.2086 232° Southwest 429 494 34,000  Level Salt Lake Center
03:54PM 37.0603 -113.2764 230° Southwest 426 490 34,000  Level Los Angeles Center
03:55PM 36.9842 -113.3917 230° Southwest 429 494 34,000  Level Los Angeles Center
03:56PM 36.9108 -113.5058 231° Southwest 425 489 34,000  Level Los Angeles Center
03:57PM 36.8353 -113.6186 230° Southwest 424 488 34,000  Level Los Angeles Center
03:58PM 36.7603 -113.7306 230° Southwest 422 486 34,000  Level Los Angeles Center
03:59PM 36.6858 -113.8425 230° Southwest 421 484 34,000  Level Los Angeles Center
04:00PM 36.5972 -113.9758 230° Southwest 418 481 34,000  Level Los Angeles Center
04:01PM 36.5222 -114.0850 229° Southwest 417 480 34,000  Level Los Angeles Center
04:02PM 36.4453 -114.2008 230° Southwest 417 480 34,000  Level Los Angeles Center
04:03PM 36.3717 -114.3125 231° Southwest 417 480 34,000  Level Los Angeles Center
04:04PM 36.2964 -114.4208 229° Southwest 415 478 34,000  Level Los Angeles Center
04:05PM 36.2231 -114.5319 231° Southwest 415 478 34,000  Level Los Angeles Center
04:06PM 36.1469 -114.6422 229° Southwest 418 481 34,000  Level Los Angeles Center
04:07PM 36.0717 -114.7528 230° Southwest 419 482 34,000  Level Los Angeles Center
04:08PM 35.9794 -114.8881 230° Southwest 424 488 34,000  Level Los Angeles Center
04:09PM 35.8981 -114.9964 227° Southwest 427 491 34,000  Level Los Angeles Center
04:10PM 35.8167 -115.1064 228° Southwest 432 497 34,000  Level Los Angeles Center
04:11PM 35.7350 -115.2156 227° Southwest 432 497 34,000  Level Los Angeles Center
04:12PM 35.6547 -115.3269 228° Southwest 432 497 34,000  Level Los Angeles Center
04:13PM 35.5744 -115.4361 228° Southwest 428 493 34,000  Level Los Angeles Center
04:14PM 35.4933 -115.5442 227° Southwest 428 493 34,000  Level Los Angeles Center
04:15PM 35.4067 -115.6606 228° Southwest 425 489 34,000  Level Los Angeles Center
04:16PM 35.3275 -115.7678 228° Southwest 424 488 34,000  Level Los Angeles Center
04:17PM 35.2464 -115.8728 227° Southwest 423 487 34,000  Level Los Angeles Center
04:18PM 35.1508 -115.9989 227° Southwest 422 486 34,000  Level Los Angeles Center
04:19PM 35.0697 -116.1053 227° Southwest 426 490 34,000  Level Los Angeles Center
04:20PM 34.9883 -116.2114 227° Southwest 427 491 34,000 -420 Level Los Angeles Center
04:21PM 34.9047 -116.3175 226° Southwest 431 496 33,200 -1,800 Descending Los Angeles Center
04:23PM 34.8231 -116.4244 227° Southwest 431 496 30,400 -1,800 Descending Los Angeles Center
04:24PM 34.7353 -116.5192 222° Southwest 425 489 29,500 -1,200 Descending Los Angeles Center
04:25PM 34.6406 -116.6069 217° Southwest 426 490 27,900 -2,100 Descending Los Angeles Center
04:26PM 34.5294 -116.7139 218° Southwest 423 487 25,200 -1,920 Descending Los Angeles Center
04:27PM 34.4358 -116.7989 217° Southwest 420 483 24,000 -780 Descending Los Angeles Center
04:28PM 34.3450 -116.8847 218° Southwest 415 478 23,600 -1,320 Descending Los Angeles Center
04:29PM 34.2542 -116.9700 218° Southwest 413 475 21,300 -2,220 Descending Los Angeles Center
04:30PM 34.1656 -117.0533 218° Southwest 408 470 19,100 -1,680 Descending Los Angeles Center
04:31PM 34.0839 -117.1600 227° Southwest 387 445 17,900 -1,380 Descending Los Angeles Center
04:32PM 34.0456 -117.2678 247° West 368 423 16,300 -1,560 Descending Los Angeles Center
04:33PM 34.0353 -117.3803 264° West 339 390 14,700 -1,620 Descending Los Angeles Center
04:34PM 34.0292 -117.4961 266° West 347 399 13,000 -1,620 Descending Los Angeles Center
04:35PM 34.0319 -117.6056 272° West 330 380 11,400 -1,680 Descending Los Angeles Center
04:36PM 34.0167 -117.7167 261° West 265 305 9,700 -1,560 Descending Southern California TRACON
04:37PM 34.0167 -117.8167 270° West 277 319 8,200 -1,380 Descending Southern California TRACON
04:38PM 34.0000 -117.9000 256° West 271 312 7,000 -1,200 Descending Southern California TRACON
04:39PM 34.0000 -117.9833 270° West 265 305 6,000 -1,320 Descending Southern California TRACON
04:40PM 33.9833 -118.0833 259° West 265 305 4,400 -1,080 Descending Southern California TRACON
04:41PM 33.9833 -118.1667 270° West 243 280 3,900 -840 Descending Southern California TRACON
04:42PM 33.9667 -118.2333 253° West 238 274 2,800 -1,140 Descending Southern California TRACON
04:43PM 33.9667 -118.3000 270° West 198 228 1,800 -1,080 Descending Southern California TRACON
04:43PM 33.9603 -118.3200 249° West 217 250 1,500 -780 Descending Los Angeles Center
04:44PM 33.9572 -118.3667 265° West 168 193 800 -720 Descending Los Angeles Center
04:45PM 33.9519 -118.4083 261° West 143 165 100 -720 Descending Los Angeles Center
04:47PM 33.9425 -118.4081 180° South  Level Estimated
04:54PM 33.9425 -118.4081 180° South  Level Estimated